Portada
METAR-TAF:

METAR-TAF

Aeroports :

Al-Riyad, Aràbia Saudita

latitud: 24-43N, longitud: 046-44E, altitud: 635 m

Observació

L'informe es va fer fa 52 minuts, a les 04:00 UTC
Vent 6 kt del Nord/Nord-Est
Temperatura 32°C
Humitat 13%
Pressió 1009 hPa
Visibilitat 10 km o més
sense núvols per sota de 1500 mi sense presència de cumulonimbus.

METAR: OERY 220400Z 03006KT CAVOK 32/00 Q1009

Hora: 07:52 (04:52 UTC)

Pronòstic

L'informe es va fer fa 5 hores i 52 minuts, a les 23:00 UTC
Pronòstic vàlid del 22 a les 00 UTC al 23 a les 06 UTC
Vent 3 kt amb direcció variable
Visibilitat 10 km o més
sense núvols per sota de 1500 mi sense presència de cumulonimbus.
Evolucionant progressivament
l' 22 a les 08 UTC al 22 a les 10 UTC
Vent 12 kt del Nord/Nord-Est

TAF: OERY 212300Z 2200/2306 VRB03KT CAVOK BECMG 2208/2210 02012KT

Observacions i pronòstics meteorològics de més de 4000 aeroports (METAR i TAF).

Les estacions disponibles són els punts grocs i vermells al mapa.

Posi el ratolí al punt desitjat per veure el nom de l'estació.

Feu clic per veure les observacions i els pronòstics meteorològics.

Per canviar el mapa: feu clic els botons verds amb una creu de color negre per apropar; al botó verd amb un guió per allunyar la imatge; o en les fletxes verdes per a mapes adjacents.


METAR-TAF: